EW3257 Weather Reports


Display with metric or nautical units.
time (UTC)temp
F
wind
direction
speed
MPH
gust
MPH
rain 1hr
in
rain 24hr
in
rain mn
in
humidity
%
barometer
mb
20201125021529 46 277 1.0 5.0 0.09 0.18 0.18 94 1015.8
20201125020027 46 284 1.0 9.0 0.14 0.16 0.16 94 1015.6
20201125014540 46 277 5.0 11.0 0.13 0.14 0.14 93 1015.6
20201125013038 46 277 5.0 13.0 0.12 0.13 0.13 92 1015.3
20201125011537 47 261 8.0 17.0 0.08 0.09 0.09 88 1015.4
20201125010026 50 216 3.0 10.0 0.01 0.02 0.02 91 1014.2
20201125003033 50 161 3.0 10.0 0.00 0.01 0.01 90 1014.3
20201125000027 49 121 2.0 5.0 0.00 0.01 0.01 91 1014.7
20201124233007 49 155 3.0 8.0 0.00 0.01 0.01 90 1015.3
20201124230041 50 161 3.0 11.0 0.00 0.01 0.01 88 1015.6
20201124223018 50 157 4.0 8.0 0.00 0.01 0.01 83 1016.2
20201124220000 50 174 3.0 10.0 0.00 0.01 0.01 84 1016.8
20201124213020 49 157 7.0 12.0 0.00 0.01 0.01 81 1017.4
20201124211645 49 200 3.0 10.0 0.00 0.01 0.01 81 1017.5
20201124210021 49 198 4.0 10.0 0.00 0.01 0.01 81 1017.6
20201124194545 47 188 7.0 15.0 0.00 0.01 0.01 82 1018.9
20201124191513 47 171 7.0 12.0 0.00 0.01 0.01 83 1019.4
20201124184513 47 196 5.0 12.0 0.00 0.02 0.01 85 1020.1
20201124181525 46 167 3.0 11.0 0.00 0.02 0.01 88 1020.3
20201124174510 45 142 2.0 9.0 0.00 0.04 0.01 91 1020.7
20201124171509 44 135 2.0 7.0 0.00 0.04 0.01 92 1020.8
20201124164514 43 201 3.0 7.0 0.01 0.05 0.01 93 1021.1
20201124161512 42 170 4.0 8.0 0.01 0.05 0.01 93 1021.4
20201124154513 42 184 2.0 6.0 0.00 0.04 0.00 93 1021.4
20201124151514 41 170 0.0 4.0 0.00 0.04 0.00 93 1021.6
20201124144515 41 148 0.0 3.0 0.00 0.06 0.00 94 1022.0
20201124141510 41 153 2.0 5.0 0.00 0.06 0.00 95 1022.1
20201124134508 41 124 0.0 0.0 0.00 0.06 0.00 95 1022.2
20201124133010 41 113 2.0 6.0 0.00 0.06 0.00 95 1022.2
20201124130009 41 140 1.0 3.0 0.00 0.06 0.00 95 1022.4
20201124123018 41 111 1.0 3.0 0.00 0.06 0.00 96 1022.7
20201124120023 41 121 1.0 4.0 0.00 0.06 0.00 96 1022.9
20201124113024 41 144 0.0 4.0 0.00 0.06 0.00 96 1022.8
20201124110010 40 132 1.0 3.0 0.00 0.06 0.00 96 1022.9
20201124104518 40 109 1.0 3.0 0.00 0.06 0.00 95 1023.0
20201124103114 40 113 2.0 3.0 0.00 0.06 0.00 95 1023.1
20201124101716 40 115 1.0 3.0 0.00 0.06 0.00 95 1023.0
20201124100132 40 157 0.0 2.0 0.00 0.06 0.00 94 1023.1
20201124094713 41 157 0.0 0.0 0.00 0.06 0.00 94 1023.2
20201124093136 42 157 0.0 0.0 0.00 0.06 0.00 94 1023.3
20201124091632 42 157 0.0 1.0 0.00 0.06 0.00 94 1023.1
20201124090218 42 141 1.0 4.0 0.00 0.06 0.00 95 1023.1
20201124084719 42 153 1.0 3.0 0.00 0.06 0.00 95 1023.2
20201124083220 42 141 1.0 4.0 0.00 0.06 0.00 94 1023.3
20201124081719 42 160 0.0 1.0 0.00 0.06 0.00 94 1023.4
20201124080142 42 138 1.0 5.0 0.00 0.06 0.00 93 1023.5
20201124074613 42 192 1.0 5.0 0.00 0.06 0.06 94 1023.5
20201124073120 42 148 1.0 3.0 0.00 0.06 0.06 94 1023.4
20201124071639 43 128 2.0 7.0 0.00 0.06 0.06 94 1023.2
20201124070049 43 147 1.0 5.0 0.00 0.06 0.06 94 1023.1
20201124064606 43 188 2.0 6.0 0.00 0.07 0.06 95 1023.2
20201124063103 43 148 1.0 6.0 0.00 0.07 0.06 95 1023.0
20201124061617 43 175 2.0 4.0 0.00 0.07 0.06 95 1023.1
20201124060054 43 175 1.0 3.0 0.00 0.07 0.06 94 1023.0
20201124054534 43 146 0.0 2.0 0.00 0.08 0.06 94 1023.0
20201124053106 44 180 0.0 3.0 0.00 0.08 0.06 94 1022.9
20201124051642 44 169 0.0 2.0 0.00 0.08 0.06 94 1022.8
20201124050032 44 169 0.0 2.0 0.00 0.08 0.06 94 1022.9
20201124044618 44 170 0.0 2.0 0.00 0.08 0.06 93 1022.8
20201124043037 44 186 0.0 1.0 0.00 0.08 0.06 92 1022.7
20201124041541 44 186 0.0 0.0 0.00 0.08 0.06 90 1022.6
20201124040039 45 186 0.0 0.0 0.00 0.08 0.06 89 1022.6
20201124034530 46 186 0.0 0.0 0.00 0.08 0.06 89 1022.6
20201124033057 47 186 0.0 0.0 0.00 0.08 0.06 90 1022.5
20201124031537 47 186 0.0 1.0 0.00 0.08 0.06 90 1022.4
20201124030058 47 186 0.0 2.0 0.00 0.08 0.06 91 1022.4
20201124024546 47 182 0.0 2.0 0.00 0.10 0.06 90 1022.2
20201124023039 48 166 1.0 3.0 0.00 0.10 0.06 90 1022.0